Curwensville, PA (16833)

10:39 AM EDT on June 30, 2015 (GMT -0400)
Clearfield | | Change Station
CLOSE
Current Station
Personal Weather Station
Location: Clearfield, PA
Elevation: 1127 ft
Nearby Weather Stations

Elev 1127 ft 41.02 °N, 78.46 °W | Updated 4 minutes ago

Overcast
Overcast
64.4 °F
Feels Like 64.4 °F
N
0.0
Wind Variable Wind from South
Gusts 0.0 mph

Today
High -- | Low -- °F
--% Chance of Precip.
Yesterday
High -- | Low -- °F
Precip. -- in
5:45 AM 8:50 PM
Waxing Gibbous, 97% visible
Pressure 29.88 in
Visibility 10.0 miles
Clouds Overcast 900 ft
Dew Point 64 °F
Humidity 97%
Rainfall in
Snow Depth Not available.
UV 2.3 out of 12
Pollen 2.10 out of 12
Air Quality Not available.
Flu Activity Sporadic
SPECI KDUJ 301201Z AUTO 14004KT 10SM OVC009 17/15 A2988 RMK AO2 T01670150

More Conditions Fewer Conditions

Pressure 29.88 in
Visibility 10.0 miles
Clouds Overcast 900 ft
Dew Point 64 °F
Humidity 97%
Rainfall in
Snow Depth Not available.
UV 2.3 out of 12
Pollen 2.10 out of 12
Air Quality Not available.
Flu Activity Sporadic
SPECI KDUJ 301201Z AUTO 14004KT 10SM OVC009 17/15 A2988 RMK AO2 T01670150

More Conditions Fewer Conditions

Nowcast | as of 7:46 am EDT on June 30, 2015

Overcast skies with numerous showers...and isolated thunderstorms... will persist for the rest of this morning along and to the north of a warm front. This front and an approaching upper level disturbance will be the focus for scattered strong to potentially severe thunderstorms this afternoon. Rainfall amounts between 8 am and noon will be between one tenth...and one quarter of an inch.

×

10-Day Weather Forecast

×

Almanac

Astronomy

Jun. 30, 2015 Rise Set
Actual Time
Civil Twilight
Nautical Twilight
Astronomical Twilight
Moon
Length of Visible Light
Length of Day
Tomorrow will be .
, % of the Moon is Illuminated

Today's Extremes

State Highs State Lows

Community

WunderPhotos

Upload Photos

1,834,008 photos uploaded!

WunderBlogs® & News

Nearby

Air Quality

  Air Quality AQ Index Pollutant
Not available.

Snow Depth

Station Depth Elevation

Earthquake Activity

City Distance Mag. Time & Date
Minimum magnitude displayed is 2.5.

Coastal Water Temperatures

Place Temperature

Stations

Nearby Weather Stations

Station Location Temp. Windchill Dew Point Humidity Wind Precip. Elev Updated Type